sensor_id;sensor_type;location;lat;lon;timestamp;temperature;humidity
32107;DHT22;18622;51.998;10.440;2022-12-17T08:03:55;-0.90;99.90
32107;DHT22;18622;51.998;10.440;2022-12-17T08:06:43;-0.90;99.90
32107;DHT22;18622;51.998;10.440;2022-12-17T08:09:28;-0.90;99.90
32107;DHT22;18622;51.998;10.440;2022-12-17T08:12:13;-0.90;99.90
32107;DHT22;18622;51.998;10.440;2022-12-17T08:14:59;-0.90;99.90
32107;DHT22;18622;51.998;10.440;2022-12-17T08:17:45;-0.90;99.90
32107;DHT22;18622;51.998;10.440;2022-12-17T08:20:30;-0.80;99.90
32107;DHT22;18622;51.998;10.440;2022-12-17T08:23:16;-0.80;99.90
32107;DHT22;18622;51.998;10.440;2022-12-17T08:26:02;-0.80;99.90
32107;DHT22;18622;51.998;10.440;2022-12-17T08:28:47;-0.80;99.90
32107;DHT22;18622;51.998;10.440;2022-12-17T08:31:33;-0.70;99.90
32107;DHT22;18622;51.998;10.440;2022-12-17T08:34:19;-0.70;99.90
32107;DHT22;18622;51.998;10.440;2022-12-17T08:37:05;-0.60;99.90
32107;DHT22;18622;51.998;10.440;2022-12-17T08:39:51;-0.60;99.90
32107;DHT22;18622;51.998;10.440;2022-12-17T08:42:36;-0.50;99.90
32107;DHT22;18622;51.998;10.440;2022-12-17T08:45:22;-0.40;99.90
32107;DHT22;18622;51.998;10.440;2022-12-17T08:48:08;-0.30;99.90
32107;DHT22;18622;51.998;10.440;2022-12-17T08:50:54;-0.20;99.90
32107;DHT22;18622;51.998;10.440;2022-12-17T08:53:39;-0.10;99.90
32107;DHT22;18622;51.998;10.440;2022-12-17T08:56:25;0.10;99.90
32107;DHT22;18622;51.998;10.440;2022-12-17T08:59:11;0.20;99.90
32107;DHT22;18622;51.998;10.440;2022-12-17T09:01:57;0.30;99.90
32107;DHT22;18622;51.998;10.440;2022-12-17T09:04:43;0.40;99.90
32107;DHT22;18622;51.998;10.440;2022-12-17T09:07:28;0.40;99.90
32107;DHT22;18622;51.998;10.440;2022-12-17T09:10:14;0.50;99.90
32107;DHT22;18622;51.998;10.440;2022-12-17T09:13:03;0.60;99.90
32107;DHT22;18622;51.998;10.440;2022-12-17T09:15:55;0.60;99.90
32107;DHT22;18622;51.998;10.440;2022-12-17T09:18:42;0.60;99.90
32107;DHT22;18622;51.998;10.440;2022-12-17T09:21:29;0.60;99.90
32107;DHT22;18622;51.998;10.440;2022-12-17T09:24:15;0.60;99.90
32107;DHT22;18622;51.998;10.440;2022-12-17T09:27:00;0.70;99.90
32107;DHT22;18622;51.998;10.440;2022-12-17T09:29:46;0.70;99.90
32107;DHT22;18622;51.998;10.440;2022-12-17T09:32:31;0.80;99.90
32107;DHT22;18622;51.998;10.440;2022-12-17T09:35:17;0.90;99.90
32107;DHT22;18622;51.998;10.440;2022-12-17T09:38:03;1.10;99.90
32107;DHT22;18622;51.998;10.440;2022-12-17T09:40:49;1.30;99.90
32107;DHT22;18622;51.998;10.440;2022-12-17T09:43:45;1.50;99.90
32107;DHT22;18622;51.998;10.440;2022-12-17T09:46:47;1.70;99.90
32107;DHT22;18622;51.998;10.440;2022-12-17T09:49:28;2.30;99.90
32107;DHT22;18622;51.998;10.440;2022-12-17T09:55:24;4.00;99.80
32107;DHT22;18622;51.998;10.440;2022-12-17T09:58:22;4.80;98.70
32107;DHT22;18622;51.998;10.440;2022-12-17T10:01:22;5.10;96.80
32107;DHT22;18622;51.998;10.440;2022-12-17T10:04:18;5.10;96.00
32107;DHT22;18622;51.998;10.440;2022-12-17T10:07:04;5.60;95.70
32107;DHT22;18622;51.998;10.440;2022-12-17T10:09:51;6.40;94.60
32107;DHT22;18622;51.998;10.440;2022-12-17T10:12:37;7.20;93.00
32107;DHT22;18622;51.998;10.440;2022-12-17T10:15:23;8.00;91.50
32107;DHT22;18622;51.998;10.440;2022-12-17T10:18:11;8.60;90.00
32107;DHT22;18622;51.998;10.440;2022-12-17T10:20:59;9.10;85.90
32107;DHT22;18622;51.998;10.440;2022-12-17T10:23:45;9.60;83.90
32107;DHT22;18622;51.998;10.440;2022-12-17T10:26:32;10.10;75.60
32107;DHT22;18622;51.998;10.440;2022-12-17T10:29:22;10.40;67.60
32107;DHT22;18622;51.998;10.440;2022-12-17T10:35:08;10.90;61.10
32107;DHT22;18622;51.998;10.440;2022-12-17T10:37:54;11.20;63.10
32107;DHT22;18622;51.998;10.440;2022-12-17T10:40:40;11.50;61.20
32107;DHT22;18622;51.998;10.440;2022-12-17T10:43:30;11.80;57.20
32107;DHT22;18622;51.998;10.440;2022-12-17T10:46:31;12.10;56.80
32107;DHT22;18622;51.998;10.440;2022-12-17T10:49:22;12.20;57.10
32107;DHT22;18622;51.998;10.440;2022-12-17T10:52:13;12.40;55.60
32107;DHT22;18622;51.998;10.440;2022-12-17T10:55:03;12.60;55.60
32107;DHT22;18622;51.998;10.440;2022-12-17T10:57:50;12.80;51.40
32107;DHT22;18622;51.998;10.440;2022-12-17T11:00:38;12.70;50.40
32107;DHT22;18622;51.998;10.440;2022-12-17T11:06:19;12.80;51.40
32107;DHT22;18622;51.998;10.440;2022-12-17T11:09:07;13.10;48.50
32107;DHT22;18622;51.998;10.440;2022-12-17T11:11:52;13.00;49.10
32107;DHT22;18622;51.998;10.440;2022-12-17T11:14:43;13.10;47.70
32107;DHT22;18622;51.998;10.440;2022-12-17T11:17:27;13.10;47.60
32107;DHT22;18622;51.998;10.440;2022-12-17T11:20:25;13.20;48.10
32107;DHT22;18622;51.998;10.440;2022-12-17T11:23:14;13.30;46.20
32107;DHT22;18622;51.998;10.440;2022-12-17T11:26:15;13.40;46.80
32107;DHT22;18622;51.998;10.440;2022-12-17T11:29:01;13.50;48.70
32107;DHT22;18622;51.998;10.440;2022-12-17T11:32:12;13.90;44.70
32107;DHT22;18622;51.998;10.440;2022-12-17T11:38:23;14.20;44.70
32107;DHT22;18622;51.998;10.440;2022-12-17T11:41:14;14.50;45.80
32107;DHT22;18622;51.998;10.440;2022-12-17T11:50:41;15.10;42.90
32107;DHT22;18622;51.998;10.440;2022-12-17T11:56:44;15.90;40.90
32107;DHT22;18622;51.998;10.440;2022-12-17T11:59:44;16.10;40.50
32107;DHT22;18622;51.998;10.440;2022-12-17T12:02:42;16.30;39.60
32107;DHT22;18622;51.998;10.440;2022-12-17T12:05:45;16.10;41.00
32107;DHT22;18622;51.998;10.440;2022-12-17T12:08:41;15.40;42.10
32107;DHT22;18622;51.998;10.440;2022-12-17T12:20:29;11.80;46.00
32107;DHT22;18622;51.998;10.440;2022-12-17T12:26:25;11.50;46.00
32107;DHT22;18622;51.998;10.440;2022-12-17T12:29:44;11.70;46.20
32107;DHT22;18622;51.998;10.440;2022-12-17T12:35:27;13.50;43.80
32107;DHT22;18622;51.998;10.440;2022-12-17T12:38:21;14.50;41.70
32107;DHT22;18622;51.998;10.440;2022-12-17T12:41:15;15.10;40.60
32107;DHT22;18622;51.998;10.440;2022-12-17T12:43:54;15.40;41.80
32107;DHT22;18622;51.998;10.440;2022-12-17T12:46:51;15.70;41.30
32107;DHT22;18622;51.998;10.440;2022-12-17T12:52:32;15.40;40.30
32107;DHT22;18622;51.998;10.440;2022-12-17T12:55:18;15.10;41.20
32107;DHT22;18622;51.998;10.440;2022-12-17T12:58:23;15.00;41.20
32107;DHT22;18622;51.998;10.440;2022-12-17T13:00:54;15.10;41.10
32107;DHT22;18622;51.998;10.440;2022-12-17T13:06:44;15.20;40.80
32107;DHT22;18622;51.998;10.440;2022-12-17T13:22:29;14.30;40.10
32107;DHT22;18622;51.998;10.440;2022-12-17T13:25:19;14.40;40.00
32107;DHT22;18622;51.998;10.440;2022-12-17T13:27:48;14.40;40.20
32107;DHT22;18622;51.998;10.440;2022-12-17T13:33:23;11.90;42.60
32107;DHT22;18622;51.998;10.440;2022-12-17T13:38:53;9.00;47.30
32107;DHT22;18622;51.998;10.440;2022-12-17T13:41:21;8.00;49.30
32107;DHT22;18622;51.998;10.440;2022-12-17T13:43:52;7.20;52.10
32107;DHT22;18622;51.998;10.440;2022-12-17T13:46:34;6.60;53.40
32107;DHT22;18622;51.998;10.440;2022-12-17T13:49:03;6.10;54.40
32107;DHT22;18622;51.998;10.440;2022-12-17T13:51:34;5.70;55.90
32107;DHT22;18622;51.998;10.440;2022-12-17T13:54:03;5.30;56.80
32107;DHT22;18622;51.998;10.440;2022-12-17T13:56:33;4.90;57.50
32107;DHT22;18622;51.998;10.440;2022-12-17T13:59:02;4.60;58.90
32107;DHT22;18622;51.998;10.440;2022-12-17T14:01:31;4.40;59.60
32107;DHT22;18622;51.998;10.440;2022-12-17T14:04:00;4.10;59.90
32107;DHT22;18622;51.998;10.440;2022-12-17T14:06:33;3.90;61.30
32107;DHT22;18622;51.998;10.440;2022-12-17T14:09:01;3.70;61.40
32107;DHT22;18622;51.998;10.440;2022-12-17T14:11:31;3.50;62.00
32107;DHT22;18622;51.998;10.440;2022-12-17T14:14:42;3.30;62.70
32107;DHT22;18622;51.998;10.440;2022-12-17T14:16:48;3.10;63.30
32107;DHT22;18622;51.998;10.440;2022-12-17T14:19:16;2.90;63.70
32107;DHT22;18622;51.998;10.440;2022-12-17T14:21:44;2.80;64.20
32107;DHT22;18622;51.998;10.440;2022-12-17T14:24:12;2.50;64.50
32107;DHT22;18622;51.998;10.440;2022-12-17T14:26:53;2.40;65.20
32107;DHT22;18622;51.998;10.440;2022-12-17T14:29:22;2.10;65.70
32107;DHT22;18622;51.998;10.440;2022-12-17T14:32:15;1.90;66.20
32107;DHT22;18622;51.998;10.440;2022-12-17T14:34:28;1.70;66.90
32107;DHT22;18622;51.998;10.440;2022-12-17T14:36:58;1.60;67.40
32107;DHT22;18622;51.998;10.440;2022-12-17T14:39:29;1.40;68.20
32107;DHT22;18622;51.998;10.440;2022-12-17T14:42:14;1.30;68.30
32107;DHT22;18622;51.998;10.440;2022-12-17T14:54:46;0.60;71.70
32107;DHT22;18622;51.998;10.440;2022-12-17T15:27:01;-0.60;77.70
32107;DHT22;18622;51.998;10.440;2022-12-17T15:29:29;-0.60;78.00
32107;DHT22;18622;51.998;10.440;2022-12-17T15:34:26;-0.70;78.70
32107;DHT22;18622;51.998;10.440;2022-12-17T15:36:55;-0.80;79.00
32107;DHT22;18622;51.998;10.440;2022-12-17T15:51:50;-1.10;83.40
32107;DHT22;18622;51.998;10.440;2022-12-17T16:16:43;-1.60;90.60
32107;DHT22;18622;51.998;10.440;2022-12-17T16:26:38;-1.70;92.00
32107;DHT22;18622;51.998;10.440;2022-12-17T16:34:11;-1.80;92.60
32107;DHT22;18622;51.998;10.440;2022-12-17T16:49:08;-2.20;93.20
32107;DHT22;18622;51.998;10.440;2022-12-17T16:51:38;-2.30;93.40
32107;DHT22;18622;51.998;10.440;2022-12-17T16:56:35;-2.30;93.80
32107;DHT22;18622;51.998;10.440;2022-12-17T17:04:00;-2.50;94.60
32107;DHT22;18622;51.998;10.440;2022-12-17T17:06:28;-2.50;94.70
32107;DHT22;18622;51.998;10.440;2022-12-17T17:13:54;-2.60;95.00
32107;DHT22;18622;51.998;10.440;2022-12-17T17:16:23;-2.60;95.10
32107;DHT22;18622;51.998;10.440;2022-12-17T17:18:51;-2.60;95.10
32107;DHT22;18622;51.998;10.440;2022-12-17T17:21:27;-2.60;95.20
32107;DHT22;18622;51.998;10.440;2022-12-17T17:24:01;-2.60;95.30
32107;DHT22;18622;51.998;10.440;2022-12-17T17:26:32;-2.70;95.40
32107;DHT22;18622;51.998;10.440;2022-12-17T17:29:01;-2.70;95.40
32107;DHT22;18622;51.998;10.440;2022-12-17T17:31:28;-2.70;95.50
32107;DHT22;18622;51.998;10.440;2022-12-17T17:33:56;-2.80;95.50
32107;DHT22;18622;51.998;10.440;2022-12-17T17:36:27;-2.80;95.60
32107;DHT22;18622;51.998;10.440;2022-12-17T17:38:57;-2.90;95.70
32107;DHT22;18622;51.998;10.440;2022-12-17T17:43:59;-2.90;95.90
32107;DHT22;18622;51.998;10.440;2022-12-17T17:46:28;-3.00;96.00
32107;DHT22;18622;51.998;10.440;2022-12-17T17:48:57;-3.00;96.20
32107;DHT22;18622;51.998;10.440;2022-12-17T17:51:28;-3.00;96.30
32107;DHT22;18622;51.998;10.440;2022-12-17T17:53:55;-3.00;96.40
32107;DHT22;18622;51.998;10.440;2022-12-17T17:56:26;-3.00;96.40
32107;DHT22;18622;51.998;10.440;2022-12-17T17:58:57;-3.00;96.40
32107;DHT22;18622;51.998;10.440;2022-12-17T18:03:55;-3.10;96.80
32107;DHT22;18622;51.998;10.440;2022-12-17T18:06:22;-3.00;96.90
32107;DHT22;18622;51.998;10.440;2022-12-17T18:08:50;-3.10;97.00
32107;DHT22;18622;51.998;10.440;2022-12-17T18:11:19;-3.10;97.20
32107;DHT22;18622;51.998;10.440;2022-12-17T18:13:47;-3.10;97.40
32107;DHT22;18622;51.998;10.440;2022-12-17T18:16:45;-3.10;97.40
32107;DHT22;18622;51.998;10.440;2022-12-17T18:19:00;-3.10;97.40
32107;DHT22;18622;51.998;10.440;2022-12-17T18:21:29;-3.10;97.40
32107;DHT22;18622;51.998;10.440;2022-12-17T18:24:11;-3.10;97.30
32107;DHT22;18622;51.998;10.440;2022-12-17T18:26:42;-3.20;97.30
32107;DHT22;18622;51.998;10.440;2022-12-17T18:31:42;-3.20;97.40
32107;DHT22;18622;51.998;10.440;2022-12-17T18:34:12;-3.20;97.50
32107;DHT22;18622;51.998;10.440;2022-12-17T18:36:42;-3.20;97.60
32107;DHT22;18622;51.998;10.440;2022-12-17T18:39:13;-3.20;97.50
32107;DHT22;18622;51.998;10.440;2022-12-17T18:44:12;-3.30;97.50
32107;DHT22;18622;51.998;10.440;2022-12-17T18:46:40;-3.30;97.50
32107;DHT22;18622;51.998;10.440;2022-12-17T18:49:10;-3.30;97.40
32107;DHT22;18622;51.998;10.440;2022-12-17T18:51:41;-3.30;97.50
32107;DHT22;18622;51.998;10.440;2022-12-17T18:54:14;-3.40;97.40
32107;DHT22;18622;51.998;10.440;2022-12-17T18:56:43;-3.40;97.30
32107;DHT22;18622;51.998;10.440;2022-12-17T18:59:13;-3.40;97.40
32107;DHT22;18622;51.998;10.440;2022-12-17T19:04:12;-3.40;97.40
32107;DHT22;18622;51.998;10.440;2022-12-17T19:06:40;-3.40;97.50
32107;DHT22;18622;51.998;10.440;2022-12-17T19:09:43;-3.40;97.50
32107;DHT22;18622;51.998;10.440;2022-12-17T19:16:44;-3.40;98.20
32107;DHT22;18622;51.998;10.440;2022-12-17T19:19:12;-3.40;98.30
32107;DHT22;18622;51.998;10.440;2022-12-17T19:24:13;-3.40;98.10
32107;DHT22;18622;51.998;10.440;2022-12-17T19:26:42;-3.40;98.10
32107;DHT22;18622;51.998;10.440;2022-12-17T19:29:12;-3.40;97.90
32107;DHT22;18622;51.998;10.440;2022-12-17T19:34:11;-3.50;98.00
32107;DHT22;18622;51.998;10.440;2022-12-17T19:36:40;-3.50;98.00
32107;DHT22;18622;51.998;10.440;2022-12-17T19:39:10;-3.50;98.00
32107;DHT22;18622;51.998;10.440;2022-12-17T19:44:11;-3.60;98.20
32107;DHT22;18622;51.998;10.440;2022-12-17T19:46:40;-3.70;98.20
32107;DHT22;18622;51.998;10.440;2022-12-17T19:49:10;-3.70;98.20
32107;DHT22;18622;51.998;10.440;2022-12-17T19:54:08;-3.80;98.10
32107;DHT22;18622;51.998;10.440;2022-12-17T19:56:37;-3.90;98.20
32107;DHT22;18622;51.998;10.440;2022-12-17T19:59:06;-3.90;98.20
32107;DHT22;18622;51.998;10.440;2022-12-17T20:04:07;-4.00;98.40
32107;DHT22;18622;51.998;10.440;2022-12-17T20:06:35;-4.00;98.50
32107;DHT22;18622;51.998;10.440;2022-12-17T20:09:04;-4.10;98.50
32107;DHT22;18622;51.998;10.440;2022-12-17T20:14:19;-4.10;98.70
32107;DHT22;18622;51.998;10.440;2022-12-17T20:16:49;-4.10;98.70
32107;DHT22;18622;51.998;10.440;2022-12-17T20:19:22;-4.20;98.70
32107;DHT22;18622;51.998;10.440;2022-12-17T20:21:50;-4.30;98.80
32107;DHT22;18622;51.998;10.440;2022-12-17T20:24:18;-4.30;98.90
32107;DHT22;18622;51.998;10.440;2022-12-17T20:26:48;-4.30;99.00
32107;DHT22;18622;51.998;10.440;2022-12-17T20:29:17;-4.30;99.00
32107;DHT22;18622;51.998;10.440;2022-12-17T20:31:49;-4.40;99.10
32107;DHT22;18622;51.998;10.440;2022-12-17T20:34:18;-4.40;99.00
32107;DHT22;18622;51.998;10.440;2022-12-17T20:36:47;-4.40;99.10
32107;DHT22;18622;51.998;10.440;2022-12-17T20:39:16;-4.40;99.10
32107;DHT22;18622;51.998;10.440;2022-12-17T20:41:44;-4.50;99.30
32107;DHT22;18622;51.998;10.440;2022-12-17T20:44:13;-4.50;99.20
32107;DHT22;18622;51.998;10.440;2022-12-17T20:46:41;-4.50;99.30
32107;DHT22;18622;51.998;10.440;2022-12-17T20:49:11;-4.50;99.30
32107;DHT22;18622;51.998;10.440;2022-12-17T20:51:40;-4.50;99.50
32107;DHT22;18622;51.998;10.440;2022-12-17T20:54:09;-4.60;99.20
32107;DHT22;18622;51.998;10.440;2022-12-17T20:56:38;-4.60;99.10
32107;DHT22;18622;51.998;10.440;2022-12-17T20:59:10;-4.60;99.30
32107;DHT22;18622;51.998;10.440;2022-12-17T21:01:36;-4.70;99.30
32107;DHT22;18622;51.998;10.440;2022-12-17T21:04:04;-4.70;99.30
32107;DHT22;18622;51.998;10.440;2022-12-17T21:06:38;-4.80;99.30
32107;DHT22;18622;51.998;10.440;2022-12-17T21:09:07;-4.80;99.40
32107;DHT22;18622;51.998;10.440;2022-12-17T21:11:36;-4.80;99.60
32107;DHT22;18622;51.998;10.440;2022-12-17T21:14:04;-4.80;99.60
32107;DHT22;18622;51.998;10.440;2022-12-17T21:16:32;-4.80;99.70
32107;DHT22;18622;51.998;10.440;2022-12-17T21:19:01;-4.90;99.80
32107;DHT22;18622;51.998;10.440;2022-12-17T21:21:31;-4.90;99.90
32107;DHT22;18622;51.998;10.440;2022-12-17T21:23:59;-4.80;99.90
32107;DHT22;18622;51.998;10.440;2022-12-17T21:26:30;-4.80;99.90
32107;DHT22;18622;51.998;10.440;2022-12-17T21:28:59;-4.80;99.90
32107;DHT22;18622;51.998;10.440;2022-12-17T21:31:30;-4.90;99.90
32107;DHT22;18622;51.998;10.440;2022-12-17T21:34:00;-4.90;99.80
32107;DHT22;18622;51.998;10.440;2022-12-17T21:36:29;-4.80;99.90
32107;DHT22;18622;51.998;10.440;2022-12-17T21:38:59;-4.90;99.90
32107;DHT22;18622;51.998;10.440;2022-12-17T21:41:30;-4.90;99.70
32107;DHT22;18622;51.998;10.440;2022-12-17T21:44:00;-5.00;99.70
32107;DHT22;18622;51.998;10.440;2022-12-17T21:46:28;-5.00;99.70
32107;DHT22;18622;51.998;10.440;2022-12-17T21:48:56;-5.00;99.70
32107;DHT22;18622;51.998;10.440;2022-12-17T21:51:24;-5.00;99.90
32107;DHT22;18622;51.998;10.440;2022-12-17T21:53:57;-5.00;99.90
32107;DHT22;18622;51.998;10.440;2022-12-17T21:56:25;-5.10;99.90
32107;DHT22;18622;51.998;10.440;2022-12-17T21:58:59;-5.10;99.90
32107;DHT22;18622;51.998;10.440;2022-12-17T22:01:30;-5.10;99.90
32107;DHT22;18622;51.998;10.440;2022-12-17T22:03:59;-5.10;99.90
32107;DHT22;18622;51.998;10.440;2022-12-17T22:06:30;-5.10;99.90
32107;DHT22;18622;51.998;10.440;2022-12-17T22:08:58;-5.10;99.90
32107;DHT22;18622;51.998;10.440;2022-12-17T22:11:27;-5.20;99.90
32107;DHT22;18622;51.998;10.440;2022-12-17T22:13:55;-5.20;99.90
32107;DHT22;18622;51.998;10.440;2022-12-17T22:16:44;-5.30;99.90
32107;DHT22;18622;51.998;10.440;2022-12-17T22:19:21;-5.30;99.90
32107;DHT22;18622;51.998;10.440;2022-12-17T22:21:50;-5.40;99.90
32107;DHT22;18622;51.998;10.440;2022-12-17T22:24:20;-5.40;99.90
32107;DHT22;18622;51.998;10.440;2022-12-17T22:26:48;-5.40;99.90
32107;DHT22;18622;51.998;10.440;2022-12-17T22:29:16;-5.50;99.90
32107;DHT22;18622;51.998;10.440;2022-12-17T22:31:45;-5.50;99.90
32107;DHT22;18622;51.998;10.440;2022-12-17T22:34:31;-5.50;99.90
32107;DHT22;18622;51.998;10.440;2022-12-17T22:36:58;-5.50;99.90
32107;DHT22;18622;51.998;10.440;2022-12-17T22:39:26;-5.50;99.90
32107;DHT22;18622;51.998;10.440;2022-12-17T22:41:54;-5.50;99.90
32107;DHT22;18622;51.998;10.440;2022-12-17T22:44:40;-5.50;99.90
